Time;durP1;ratioP1;P1;durP2;ratioP2;P2;SDS_P1;SDS_P2;PMS_P1;PMS_P2;Temp;Humidity;BMP_temperature;BMP_pressure;BME280_temperature;BME280_humidity;BME280_pressure;Samples;Min_cycle;Max_cycle;Signal;HPM_P1;HPM_P2
2021/12/15 00:01:51;;;;;;;4.90;3.25;;;16.30;62.40;;;;;;5072806;28;20056;-76
2021/12/15 00:04:18;;;;;;;5.43;3.50;;;15.70;63.20;;;;;;5064620;28;20048;-76
2021/12/15 00:06:45;;;;;;;5.00;3.33;;;15.80;66.80;;;;;;5073310;28;20515;-76
2021/12/15 00:09:13;;;;;;;6.30;3.50;;;16.20;61.30;;;;;;5072892;28;20047;-77
2021/12/15 00:11:41;;;;;;;4.45;3.40;;;;;;;;;;5073289;28;20088;-77
2021/12/15 00:14:09;;;;;;;5.88;3.38;;;16.40;67.30;;;;;;5073022;28;20045;-76
2021/12/15 00:16:39;;;;;;;7.15;3.92;;;16.00;67.20;;;;;;5073268;28;20059;-76
2021/12/15 00:19:06;;;;;;;4.32;3.15;;;16.10;67.20;;;;;;5061530;28;20077;-76
2021/12/15 00:21:33;;;;;;;4.28;3.22;;;16.10;66.00;;;;;;5053015;28;20128;-76
2021/12/15 00:24:00;;;;;;;4.50;3.30;;;16.90;67.80;;;;;;5053424;28;20049;-76
2021/12/15 00:26:27;;;;;;;5.68;3.65;;;;;;;;;;5053319;28;20057;-77
2021/12/15 00:28:53;;;;;;;5.18;3.53;;;16.20;67.40;;;;;;5052969;28;20052;-76
2021/12/15 00:31:20;;;;;;;4.40;3.50;;;16.60;67.60;;;;;;5053212;28;20112;-77
2021/12/15 00:33:48;;;;;;;5.22;3.42;;;16.00;61.40;;;;;;5067589;28;20076;-77
2021/12/15 00:36:15;;;;;;;4.43;3.53;;;;;;;;;;5073712;28;20056;-77
2021/12/15 00:38:42;;;;;;;4.80;3.58;;;16.20;67.50;;;;;;5073611;28;20048;-77
2021/12/15 00:41:09;;;;;;;5.10;3.17;;;;;;;;;;5073544;28;20055;-76
2021/12/15 00:43:36;;;;;;;5.07;3.70;;;16.10;67.20;;;;;;5073786;28;20059;-77
2021/12/15 00:46:03;;;;;;;3.35;3.03;;;16.80;67.60;;;;;;5073548;28;20058;-77
2021/12/15 00:48:29;;;;;;;3.97;3.20;;;16.10;62.80;;;;;;5057699;28;20490;-76
2021/12/15 00:50:57;;;;;;;5.22;3.50;;;16.10;67.40;;;;;;5053576;28;20188;-77
2021/12/15 00:53:24;;;;;;;5.97;4.32;;;16.30;67.40;;;;;;5053780;28;20071;-77
2021/12/15 00:55:51;;;;;;;4.65;3.33;;;15.60;64.00;;;;;;5054291;28;20045;-77
2021/12/15 00:58:20;;;;;;;5.43;3.55;;;16.00;67.50;;;;;;5053283;28;20045;-77
2021/12/15 01:00:48;;;;;;;5.65;3.60;;;16.00;67.20;;;;;;5054008;28;20057;-77
2021/12/15 01:03:15;;;;;;;5.03;3.55;;;16.00;67.40;;;;;;5071652;28;20056;-77
2021/12/15 01:05:46;;;;;;;4.32;3.53;;;16.50;62.60;;;;;;5073327;28;20076;-77
2021/12/15 01:08:16;;;;;;;4.47;3.40;;;15.50;67.00;;;;;;5073020;28;20541;-77
2021/12/15 01:10:58;;;;;;;4.75;3.22;;;15.40;66.90;;;;;;5073392;28;20136;-77
2021/12/15 01:21:37;;;;;;;4.40;3.13;;;16.70;67.90;;;;;;5052988;28;20049;-76
2021/12/15 01:24:06;;;;;;;4.20;3.30;;;15.40;67.20;;;;;;5052951;28;20132;-77
2021/12/15 01:26:32;;;;;;;5.45;3.17;;;16.00;65.30;;;;;;5052605;28;20136;-77
2021/12/15 01:28:59;;;;;;;3.30;3.00;;;16.00;67.50;;;;;;5052497;28;20056;-77
2021/12/15 01:31:26;;;;;;;3.67;3.00;;;16.00;67.60;;;;;;5053237;28;20373;-77
2021/12/15 01:33:52;;;;;;;5.57;3.83;;;15.60;63.30;;;;;;5052844;28;20060;-77
2021/12/15 01:36:19;;;;;;;4.47;3.63;;;15.20;66.90;;;;;;5060705;28;20052;-77
2021/12/15 01:38:46;;;;;;;5.85;3.53;;;16.10;67.40;;;;;;5052796;28;20204;-77
2021/12/15 01:41:20;;;;;;;6.28;3.35;;;16.00;67.40;;;;;;5052790;28;20057;-77
2021/12/15 01:46:52;;;;;;;4.30;3.00;;;15.90;63.90;;;;;;5052940;28;20068;-76
2021/12/15 01:46:55;;;;;;;5.15;3.10;;;16.00;67.70;;;;;;5052645;28;20444;-77
2021/12/15 01:49:40;;;;;;;4.30;2.92;;;16.00;67.80;;;;;;5052454;28;20496;-77
2021/12/15 01:52:10;;;;;;;5.15;3.40;;;15.90;67.40;;;;;;5054540;28;20055;-77
2021/12/15 01:54:38;;;;;;;4.40;3.42;;;15.80;66.90;;;;;;5052870;28;20049;-77
2021/12/15 01:57:07;;;;;;;3.83;3.08;;;15.90;61.50;;;;;;5052437;28;20059;-76
2021/12/15 01:59:34;;;;;;;4.38;3.20;;;15.80;67.50;;;;;;5053069;28;20481;-77
2021/12/15 02:02:01;;;;;;;4.68;3.10;;;;;;;;;;5052351;28;20436;-76
2021/12/15 02:04:28;;;;;;;3.47;2.90;;;16.00;67.30;;;;;;5052551;28;20449;-77
2021/12/15 02:06:55;;;;;;;4.32;3.05;;;;;;;;;;5053008;28;20079;-76
2021/12/15 02:09:38;;;;;;;3.55;3.17;;;15.90;67.50;;;;;;5053486;28;20416;-77
2021/12/15 02:12:07;;;;;;;4.22;2.97;;;15.90;61.50;;;;;;5052705;28;20421;-76
2021/12/15 02:14:34;;;;;;;4.28;3.08;;;15.90;67.30;;;;;;5052437;28;20406;-77
2021/12/15 02:17:01;;;;;;;5.35;3.67;;;16.00;67.60;;;;;;5051619;28;20053;-77
2021/12/15 02:19:27;;;;;;;4.88;3.38;;;15.90;62.50;;;;;;5052545;28;20053;-77
2021/12/15 02:21:58;;;;;;;4.88;3.42;;;16.00;67.60;;;;;;5052133;28;20052;-77
2021/12/15 02:24:25;;;;;;;4.20;3.08;;;15.90;67.30;;;;;;5051997;28;20045;-77
2021/12/15 02:26:57;;;;;;;4.38;3.30;;;;;;;;;;5058988;28;20135;-76
2021/12/15 02:29:25;;;;;;;4.38;2.85;;;16.80;67.70;;;;;;5071847;28;20055;-77
2021/12/15 02:32:04;;;;;;;3.60;2.80;;;15.90;67.20;;;;;;5072436;28;20056;-77
2021/12/15 02:34:55;;;;;;;4.00;2.97;;;16.00;67.60;;;;;;5072663;28;20052;-77
2021/12/15 02:37:22;;;;;;;4.57;2.90;;;16.10;67.40;;;;;;5072295;28;20052;-77
2021/12/15 02:39:50;;;;;;;3.63;2.80;;;15.50;67.30;;;;;;5072541;28;20072;-77
2021/12/15 02:42:18;;;;;;;4.22;3.10;;;16.00;67.40;;;;;;5072161;28;20057;-77
2021/12/15 02:44:45;;;;;;;4.05;2.90;;;16.00;66.40;;;;;;5056955;28;20052;-77
2021/12/15 02:47:12;;;;;;;3.88;2.92;;;15.90;61.40;;;;;;5052247;28;20432;-76
2021/12/15 02:49:39;;;;;;;4.00;3.10;;;16.80;67.60;;;;;;5051732;28;20045;-77
2021/12/15 02:52:06;;;;;;;3.63;2.83;;;16.00;67.30;;;;;;5052292;28;20079;-77
2021/12/15 02:54:34;;;;;;;3.65;2.88;;;16.00;67.20;;;;;;5052123;28;20141;-77
2021/12/15 02:57:06;;;;;;;3.95;2.85;;;16.00;67.20;;;;;;5052148;28;20060;-77
2021/12/15 02:59:41;;;;;;;3.90;2.92;;;;;;;;;;5051260;28;20045;-76
2021/12/15 03:02:18;;;;;;;3.85;3.10;;;16.00;61.50;;;;;;5053051;28;20453;-77
2021/12/15 03:04:49;;;;;;;4.95;2.90;;;16.00;62.30;;;;;;5052201;28;20091;-77
2021/12/15 03:07:24;;;;;;;4.30;3.08;;;15.90;67.50;;;;;;5052567;28;20533;-77
2021/12/15 03:15:24;;;;;;;4.27;3.03;;;16.00;64.50;;;;;;5051923;28;20147;-77
2021/12/15 03:17:53;;;;;;;3.90;2.75;;;16.00;65.50;;;;;;5062642;28;20049;-77
2021/12/15 03:20:20;;;;;;;3.63;2.58;;;15.90;67.60;;;;;;5056302;28;20045;-77
2021/12/15 03:22:49;;;;;;;3.90;3.13;;;16.00;67.30;;;;;;5052118;28;20537;-76
2021/12/15 03:25:17;;;;;;;3.42;2.80;;;16.00;67.30;;;;;;5051852;28;20064;-77
2021/12/15 03:33:33;;;;;;;4.18;3.15;;;15.20;66.90;;;;;;5050563;28;20493;-77
2021/12/15 03:36:05;;;;;;;3.92;2.90;;;15.30;61.10;;;;;;5060446;28;20465;-76
2021/12/15 03:38:33;;;;;;;4.75;3.00;;;15.80;61.60;;;;;;5060719;28;20053;-76
2021/12/15 03:41:01;;;;;;;3.70;2.80;;;16.00;61.50;;;;;;5062729;28;20060;-75
2021/12/15 03:43:28;;;;;;;3.22;2.70;;;;;;;;;;5060607;28;20081;-77
2021/12/15 03:45:56;;;;;;;3.63;2.95;;;16.20;67.60;;;;;;5062673;28;20047;-77
2021/12/15 03:48:28;;;;;;;3.75;2.70;;;16.20;67.30;;;;;;5060652;28;20127;-76
2021/12/15 03:50:56;;;;;;;3.55;2.67;;;15.40;67.20;;;;;;5060654;28;20056;-76
2021/12/15 03:53:23;;;;;;;3.83;2.78;;;15.70;67.20;;;;;;5061617;28;20497;-76
2021/12/15 03:55:49;;;;;;;2.92;2.33;;;15.60;67.00;;;;;;5061897;28;20054;-77
2021/12/15 03:58:21;;;;;;;3.22;2.47;;;16.20;64.10;;;;;;5061728;28;20496;-77
2021/12/15 04:00:50;;;;;;;3.70;2.83;;;15.40;64.00;;;;;;5060530;28;20045;-76
2021/12/15 04:03:18;;;;;;;3.35;2.67;;;16.20;64.30;;;;;;5061364;28;20053;-77
2021/12/15 04:05:44;;;;;;;3.28;2.80;;;16.30;67.20;;;;;;5060569;28;20041;-76
2021/12/15 04:08:11;;;;;;;3.58;2.45;;;16.10;67.10;;;;;;5060381;28;20049;-77
2021/12/15 04:10:39;;;;;;;3.38;2.63;;;;;;;;;;5060233;28;20047;-76
2021/12/15 04:13:05;;;;;;;3.17;2.47;;;15.70;66.70;;;;;;5061801;28;20044;-77
2021/12/15 04:15:43;;;;;;;3.42;2.88;;;16.40;66.70;;;;;;5060093;28;20049;-77
2021/12/15 04:18:10;;;;;;;3.08;2.45;;;16.10;66.60;;;;;;5060149;28;20408;-77
2021/12/15 04:20:37;;;;;;;3.00;2.58;;;16.50;61.00;;;;;;5061938;28;20396;-76
2021/12/15 04:23:04;;;;;;;3.30;2.38;;;16.40;66.60;;;;;;5061884;28;20088;-76
2021/12/15 04:25:33;;;;;;;2.80;2.38;;;16.60;61.30;;;;;;5059679;28;20053;-76
2021/12/15 04:28:02;;;;;;;2.80;2.40;;;16.90;67.00;;;;;;5059749;28;20056;-76
2021/12/15 04:30:31;;;;;;;2.97;2.40;;;16.50;60.90;;;;;;5059840;28;20044;-77
2021/12/15 04:33:01;;;;;;;2.97;2.25;;;16.60;66.60;;;;;;5062852;28;20049;-75
2021/12/15 04:35:28;;;;;;;3.60;2.72;;;16.70;66.80;;;;;;5070661;28;20562;-75
2021/12/15 04:37:54;;;;;;;3.30;2.50;;;16.80;66.70;;;;;;5071634;28;20063;-75
2021/12/15 04:40:22;;;;;;;3.55;2.50;;;16.70;62.50;;;;;;5071682;28;20055;-75
2021/12/15 04:42:49;;;;;;;3.63;2.65;;;;;;;;;;5072767;28;20053;-74
2021/12/15 04:45:18;;;;;;;3.13;2.58;;;17.20;66.80;;;;;;5071906;28;20087;-75
2021/12/15 04:47:45;;;;;;;3.85;2.78;;;16.50;66.60;;;;;;5071870;28;20131;-75
2021/12/15 04:50:13;;;;;;;3.00;2.67;;;15.60;61.30;;;;;;5072321;28;20481;-75
2021/12/15 04:52:40;;;;;;;3.75;2.92;;;;;;;;;;5072299;28;20044;-75
2021/12/15 04:55:07;;;;;;;3.65;2.85;;;16.10;65.80;;;;;;5071951;28;20059;-75
2021/12/15 04:57:34;;;;;;;3.60;2.58;;;15.90;65.60;;;;;;5072094;28;20084;-75
2021/12/15 05:00:01;;;;;;;3.95;2.70;;;16.80;66.10;;;;;;5072095;28;20041;-75
2021/12/15 05:02:28;;;;;;;3.65;2.70;;;16.90;66.20;;;;;;5070582;28;20565;-75
2021/12/15 05:04:55;;;;;;;3.33;2.65;;;16.70;66.30;;;;;;5072245;28;20060;-76
2021/12/15 05:07:23;;;;;;;4.15;2.90;;;16.80;60.50;;;;;;5071294;28;20055;-75
2021/12/15 05:09:51;;;;;;;3.35;2.60;;;;;;;;;;5071907;28;20052;-74
2021/12/15 05:12:18;;;;;;;4.85;2.67;;;;;;;;;;5072009;28;20058;-74
2021/12/15 05:14:45;;;;;;;5.00;2.72;;;16.80;65.90;;;;;;5071988;28;20059;-75
2021/12/15 05:17:11;;;;;;;4.53;2.78;;;17.00;66.10;;;;;;5071525;28;20050;-75
2021/12/15 05:19:38;;;;;;;3.13;2.50;;;16.70;60.40;;;;;;5070270;28;20482;-75
2021/12/15 05:22:05;;;;;;;4.78;3.28;;;17.30;66.40;;;;;;5071923;28;20056;-75
2021/12/15 05:24:35;;;;;;;3.90;3.10;;;17.20;66.20;;;;;;5071604;28;20057;-76
2021/12/15 05:27:05;;;;;;;3.40;2.80;;;16.00;65.50;;;;;;5071105;28;20162;-74
2021/12/15 05:29:32;;;;;;;4.60;3.13;;;17.20;66.40;;;;;;5071546;28;20040;-75
2021/12/15 05:31:58;;;;;;;5.15;3.10;;;17.20;66.10;;;;;;5071666;28;20540;-75
2021/12/15 05:34:26;;;;;;;4.00;2.92;;;16.60;65.90;;;;;;5071418;28;20048;-75
2021/12/15 05:36:52;;;;;;;4.40;3.28;;;17.30;66.10;;;;;;5051946;28;20052;-74
2021/12/15 05:39:19;;;;;;;3.92;3.05;;;17.00;66.10;;;;;;5051739;28;20049;-76
2021/12/15 05:41:47;;;;;;;4.40;3.03;;;16.10;65.60;;;;;;5052609;28;20552;-75
2021/12/15 05:44:14;;;;;;;3.20;2.83;;;16.90;66.00;;;;;;5051553;28;20135;-75
2021/12/15 05:46:41;;;;;;;5.55;3.15;;;16.50;65.90;;;;;;5051327;28;20492;-75
2021/12/15 05:49:07;;;;;;;4.15;3.10;;;16.90;65.80;;;;;;5051058;28;20135;-75
2021/12/15 05:51:36;;;;;;;4.22;2.78;;;17.40;66.10;;;;;;5054942;28;20463;-75
2021/12/15 05:54:03;;;;;;;4.43;3.28;;;16.70;61.40;;;;;;5071386;28;20505;-75
2021/12/15 05:56:30;;;;;;;4.68;3.30;;;16.20;65.70;;;;;;5071296;28;20400;-75
2021/12/15 05:58:58;;;;;;;4.05;3.38;;;17.00;61.20;;;;;;5070400;28;20070;-75
2021/12/15 06:01:26;;;;;;;4.03;3.08;;;17.20;66.00;;;;;;5070937;28;20135;-75
2021/12/15 06:03:53;;;;;;;5.28;3.33;;;17.00;65.90;;;;;;5071011;28;20060;-75
2021/12/15 06:06:20;;;;;;;3.97;2.97;;;17.50;66.40;;;;;;5070747;28;20561;-75
2021/12/15 06:08:47;;;;;;;4.10;3.20;;;17.10;65.90;;;;;;5069372;28;20143;-75
2021/12/15 06:11:13;;;;;;;3.75;3.35;;;16.70;65.80;;;;;;5070823;28;20049;-74
2021/12/15 06:13:40;;;;;;;4.70;3.47;;;16.90;65.80;;;;;;5071051;28;20408;-75
2021/12/15 06:16:10;;;;;;;4.53;3.47;;;17.30;66.10;;;;;;5070482;28;20511;-75
2021/12/15 06:18:38;;;;;;;4.55;3.58;;;;;;;;;;5070975;28;20068;-73
2021/12/15 06:21:04;;;;;;;5.07;3.42;;;17.10;66.00;;;;;;5070856;28;20051;-76
2021/12/15 06:23:31;;;;;;;4.28;3.10;;;17.10;65.70;;;;;;5071066;28;20058;-75
2021/12/15 06:25:59;;;;;;;5.05;3.17;;;17.40;60.40;;;;;;5069108;28;20489;-75
2021/12/15 06:28:26;;;;;;;4.55;3.70;;;17.10;60.20;;;;;;5070885;28;20062;-74
2021/12/15 06:30:53;;;;;;;4.13;3.33;;;17.40;66.10;;;;;;5070382;28;20052;-75
2021/12/15 06:33:22;;;;;;;4.90;3.60;;;17.10;60.20;;;;;;5070683;28;20063;-74
2021/12/15 06:35:53;;;;;;;4.40;3.08;;;16.20;65.50;;;;;;5070586;28;20052;-75
2021/12/15 06:38:20;;;;;;;4.50;3.25;;;16.50;65.60;;;;;;5070869;28;20056;-75
2021/12/15 06:40:48;;;;;;;5.07;3.67;;;17.20;65.90;;;;;;5070660;28;20048;-75
2021/12/15 06:43:15;;;;;;;4.72;3.80;;;17.00;65.90;;;;;;5069022;28;20136;-75
2021/12/15 06:45:56;;;;;;;4.60;3.67;;;17.10;65.70;;;;;;5070331;28;20106;-76
2021/12/15 06:59:20;;;;;;;4.38;3.47;;;17.10;65.70;;;;;;5051545;28;20517;-75
2021/12/15 07:01:47;;;;;;;4.55;3.80;;;;;;;;;;5050495;28;20045;-75
2021/12/15 07:04:15;;;;;;;4.07;3.20;;;17.20;65.70;;;;;;5050312;28;20060;-75
2021/12/15 07:06:42;;;;;;;4.50;3.33;;;17.20;66.00;;;;;;5050326;28;20059;-75
2021/12/15 07:09:08;;;;;;;4.60;3.63;;;17.00;65.90;;;;;;5050703;28;20595;-75
2021/12/15 07:11:35;;;;;;;4.20;3.47;;;17.20;65.80;;;;;;5054037;28;20052;-75
2021/12/15 07:14:02;;;;;;;4.65;3.78;;;17.00;65.60;;;;;;5054346;28;20055;-75
2021/12/15 07:16:31;;;;;;;4.90;3.88;;;17.10;65.80;;;;;;5055202;28;20577;-76
2021/12/15 07:19:07;;;;;;;4.95;4.07;;;16.80;65.50;;;;;;5054157;28;20439;-75
2021/12/15 07:21:39;;;;;;;6.28;3.90;;;16.90;65.70;;;;;;5054419;28;20135;-75
2021/12/15 07:24:07;;;;;;;4.93;3.88;;;17.60;65.40;;;;;;5054236;28;20114;-75
2021/12/15 07:26:34;;;;;;;4.75;3.92;;;16.40;64.40;;;;;;5053662;28;20049;-75
2021/12/15 07:29:00;;;;;;;5.53;3.97;;;16.80;65.90;;;;;;5053988;28;20132;-75
2021/12/15 07:31:27;;;;;;;5.13;3.78;;;16.90;65.70;;;;;;5053925;28;20626;-75
2021/12/15 07:33:54;;;;;;;5.63;4.30;;;17.80;66.20;;;;;;5067846;28;20056;-75
2021/12/15 07:36:20;;;;;;;5.38;4.10;;;17.00;66.10;;;;;;5073550;28;20052;-75
2021/12/15 07:38:48;;;;;;;5.03;4.30;;;17.10;65.90;;;;;;5073668;28;20080;-74
2021/12/15 07:41:24;;;;;;;5.95;4.10;;;16.80;66.10;;;;;;5073816;28;20090;-75
2021/12/15 07:43:51;;;;;;;6.32;4.78;;;15.90;65.70;;;;;;5073808;28;20548;-76
2021/12/15 07:46:18;;;;;;;5.90;4.25;;;16.10;65.80;;;;;;5073661;28;20059;-75
2021/12/15 07:48:45;;;;;;;5.38;4.70;;;16.30;65.90;;;;;;5070452;28;20474;-75
2021/12/15 07:51:13;;;;;;;6.20;4.65;;;16.40;66.00;;;;;;5058471;28;20132;-73
2021/12/15 07:53:41;;;;;;;6.47;5.05;;;16.70;60.60;;;;;;5053670;28;20053;-76
2021/12/15 07:56:09;;;;;;;8.07;5.07;;;16.70;66.30;;;;;;5053393;28;20055;-74
2021/12/15 07:58:35;;;;;;;7.82;4.70;;;16.70;66.10;;;;;;5053241;28;20391;-75
2021/12/15 08:01:04;;;;;;;8.43;4.85;;;16.30;60.60;;;;;;5053661;28;20136;-75
2021/12/15 08:03:31;;;;;;;7.40;5.55;;;16.80;61.90;;;;;;5053523;28;20486;-77
2021/12/15 08:05:57;;;;;;;7.00;4.97;;;16.90;66.30;;;;;;5054261;28;20055;-75
2021/12/15 08:08:24;;;;;;;7.80;5.53;;;17.00;66.40;;;;;;5054300;28;20045;-77
2021/12/15 08:10:53;;;;;;;6.88;5.53;;;16.70;66.20;;;;;;5053179;28;20057;-75
2021/12/15 08:13:21;;;;;;;10.88;5.57;;;16.30;66.20;;;;;;5053442;28;20053;-75
2021/12/15 08:15:48;;;;;;;9.32;6.38;;;16.60;66.60;;;;;;5053117;28;20402;-75
2021/12/15 08:18:15;;;;;;;8.68;5.38;;;;;;;;;;5053039;28;20131;-76
2021/12/15 08:20:42;;;;;;;8.43;5.82;;;16.60;66.60;;;;;;5052906;28;20128;-75
2021/12/15 08:23:09;;;;;;;9.18;5.68;;;16.40;66.60;;;;;;5053353;28;20084;-75
2021/12/15 08:25:35;;;;;;;8.68;5.68;;;16.00;66.10;;;;;;5052960;28;20052;-75
2021/12/15 08:28:03;;;;;;;8.27;5.57;;;16.50;66.40;;;;;;5053008;28;20084;-75
2021/12/15 08:30:31;;;;;;;14.30;6.10;;;16.70;66.80;;;;;;5055293;28;20045;-75
2021/12/15 08:32:59;;;;;;;7.93;5.07;;;16.00;66.60;;;;;;5059769;28;20051;-75
2021/12/15 08:35:27;;;;;;;10.55;5.72;;;16.70;66.80;;;;;;5062553;28;20051;-75
2021/12/15 08:37:54;;;;;;;8.40;5.90;;;16.20;66.60;;;;;;5069760;28;20062;-75
2021/12/15 08:40:21;;;;;;;9.57;5.47;;;16.50;66.70;;;;;;5072791;28;20131;-75
2021/12/15 08:42:48;;;;;;;8.43;5.38;;;16.50;66.80;;;;;;5063774;28;20136;-76
2021/12/15 08:45:15;;;;;;;7.35;5.30;;;17.30;67.00;;;;;;5059918;28;20057;-75
2021/12/15 08:47:43;;;;;;;11.45;5.65;;;15.80;63.20;;;;;;5062655;28;20686;-75
2021/12/15 08:50:12;;;;;;;8.52;5.97;;;16.50;66.70;;;;;;5060849;28;20048;-75
2021/12/15 08:52:39;;;;;;;7.93;5.43;;;16.40;66.60;;;;;;5055514;28;20049;-75
2021/12/15 08:55:07;;;;;;;8.68;5.30;;;16.40;60.90;;;;;;5062575;28;20139;-75
2021/12/15 08:57:33;;;;;;;8.25;5.40;;;15.90;66.50;;;;;;5072248;28;20052;-75
2021/12/15 09:00:00;;;;;;;7.68;5.35;;;16.50;66.70;;;;;;5072441;28;20421;-72
2021/12/15 09:02:27;;;;;;;7.10;5.10;;;17.20;67.30;;;;;;5072074;28;20052;-75
2021/12/15 09:04:55;;;;;;;7.65;5.32;;;15.60;66.40;;;;;;5072318;28;20052;-75
2021/12/15 09:07:21;;;;;;;8.05;5.72;;;15.70;66.70;;;;;;5071803;28;20063;-75
2021/12/15 09:09:48;;;;;;;9.35;5.57;;;16.30;66.80;;;;;;5072384;28;20060;-75
2021/12/15 09:12:18;;;;;;;8.90;5.40;;;16.10;66.70;;;;;;5071269;28;20094;-76
2021/12/15 09:14:45;;;;;;;9.13;6.20;;;16.50;66.90;;;;;;5072235;28;20059;-77
2021/12/15 09:17:12;;;;;;;8.35;5.25;;;15.70;66.50;;;;;;5071696;28;20064;-74
2021/12/15 09:19:39;;;;;;;10.85;6.30;;;16.40;67.10;;;;;;5072180;28;20078;-74
2021/12/15 09:22:07;;;;;;;11.13;6.13;;;17.30;67.60;;;;;;5065071;28;20049;-73
2021/12/15 09:24:34;;;;;;;12.88;6.85;;;17.20;67.30;;;;;;5071899;28;20240;-71
2021/12/15 09:27:01;;;;;;;15.45;6.38;;;16.50;65.90;;;;;;5071460;28;20063;-72
2021/12/15 09:29:28;;;;;;;8.77;5.90;;;16.60;67.00;;;;;;5062298;28;20098;-72
2021/12/15 09:31:55;;;;;;;9.40;5.28;;;;;;;;;;5051253;28;20049;-75
2021/12/15 09:34:21;;;;;;;17.15;6.38;;;16.50;66.90;;;;;;5050462;28;20049;-74
2021/12/15 09:36:48;;;;;;;8.82;5.50;;;15.90;66.90;;;;;;5051468;28;20067;-73
2021/12/15 09:39:17;;;;;;;12.02;5.93;;;16.70;67.20;;;;;;5051587;28;20053;-73
2021/12/15 09:41:44;;;;;;;15.02;5.40;;;17.10;67.30;;;;;;5051559;28;20503;-74
2021/12/15 09:44:14;;;;;;;9.90;6.45;;;16.70;67.10;;;;;;5061647;28;20439;-75
2021/12/15 09:47:05;;;;;;;9.25;5.40;;;16.70;66.70;;;;;;5070956;28;20052;-71
2021/12/15 10:03:32;;;;;;;11.48;5.45;;;16.90;66.70;;;;;;5025462;28;20057;-72
2021/12/15 10:06:07;;;;;;;8.48;5.00;;;17.00;66.70;;;;;;5051155;28;20083;-72
2021/12/15 10:11:46;;;;;;;8.68;5.05;;;16.80;66.90;;;;;;4960275;28;20046;-73
2021/12/15 10:19:46;;;;;;;8.73;5.25;;;16.90;66.50;;;;;;5050868;28;20083;-72
2021/12/15 10:22:16;;;;;;;6.82;4.57;;;17.60;67.00;;;;;;5061524;28;20437;-72
2021/12/15 10:24:48;;;;;;;8.70;4.93;;;16.90;66.70;;;;;;5053552;28;20057;-72
2021/12/15 10:27:17;;;;;;;10.88;4.97;;;16.00;60.50;;;;;;5064054;28;20080;-73
2021/12/15 10:29:58;;;;;;;8.82;4.88;;;17.00;63.60;;;;;;5058222;28;20420;-72
2021/12/15 10:32:29;;;;;;;8.25;5.10;;;16.70;66.50;;;;;;5050355;28;20060;-73
2021/12/15 10:35:01;;;;;;;6.78;4.50;;;16.50;66.40;;;;;;5050396;28;20063;-71
2021/12/15 10:37:28;;;;;;;7.10;4.60;;;16.00;66.20;;;;;;5056923;28;20074;-72
2021/12/15 10:40:12;;;;;;;5.68;4.18;;;17.00;66.40;;;;;;5067277;28;20057;-72
2021/12/15 10:42:40;;;;;;;8.55;4.75;;;16.10;62.30;;;;;;5050378;28;20053;-72
2021/12/15 10:45:08;;;;;;;6.53;4.47;;;17.10;62.40;;;;;;5052584;28;20476;-72
2021/12/15 10:47:41;;;;;;;12.05;4.53;;;17.20;63.40;;;;;;5054710;28;20057;-71
2021/12/15 10:50:12;;;;;;;6.13;4.43;;;17.70;66.90;;;;;;5054641;28;20052;-71
2021/12/15 10:52:50;;;;;;;9.35;4.50;;;17.80;66.80;;;;;;5054654;28;20090;-71
2021/12/15 10:55:17;;;;;;;8.77;4.45;;;;;;;;;;5056853;28;20094;-71
2021/12/15 10:57:45;;;;;;;6.40;4.05;;;17.10;66.40;;;;;;5053769;28;20055;-70
2021/12/15 11:00:13;;;;;;;7.45;4.20;;;17.30;66.70;;;;;;5063564;28;20049;-70
2021/12/15 11:02:40;;;;;;;7.63;3.90;;;17.10;66.50;;;;;;5054270;28;20055;-70
2021/12/15 11:05:08;;;;;;;7.63;4.63;;;16.30;60.90;;;;;;5054290;28;20059;-71
2021/12/15 11:07:35;;;;;;;7.13;4.25;;;;;;;;;;5054208;28;20052;-71
2021/12/15 11:10:05;;;;;;;7.88;4.50;;;16.90;66.40;;;;;;5071008;28;20060;-72
2021/12/15 11:12:33;;;;;;;6.18;4.28;;;16.10;64.50;;;;;;5075364;28;20546;-72
2021/12/15 11:15:05;;;;;;;6.05;3.97;;;17.70;66.70;;;;;;5073978;28;20095;-72
2021/12/15 11:17:33;;;;;;;6.75;4.20;;;17.00;65.30;;;;;;5074124;28;20056;-72
2021/12/15 11:20:03;;;;;;;7.45;4.20;;;17.90;64.40;;;;;;5075092;28;20044;-72
2021/12/15 11:22:43;;;;;;;7.07;4.18;;;16.60;66.40;;;;;;5074234;28;20057;-72
2021/12/15 11:25:12;;;;;;;8.90;4.30;;;16.90;66.50;;;;;;5053863;28;20191;-72
2021/12/15 11:27:39;;;;;;;6.25;3.97;;;16.10;65.90;;;;;;5060122;28;20075;-71
2021/12/15 11:30:10;;;;;;;6.72;3.78;;;16.80;64.40;;;;;;5059534;28;20053;-71
2021/12/15 11:32:42;;;;;;;5.38;3.58;;;16.90;66.60;;;;;;5058964;28;20461;-72
2021/12/15 11:35:11;;;;;;;5.80;4.22;;;17.10;66.70;;;;;;5062448;28;20575;-71
2021/12/15 11:37:51;;;;;;;5.72;4.03;;;17.10;66.50;;;;;;5062784;28;20063;-72
2021/12/15 11:40:22;;;;;;;5.55;3.90;;;16.90;60.90;;;;;;5063648;28;20044;-72
2021/12/15 11:42:49;;;;;;;6.43;3.65;;;16.10;66.20;;;;;;5062892;28;20127;-72
2021/12/15 11:45:17;;;;;;;6.78;3.65;;;16.10;65.90;;;;;;5062056;28;20055;-71
2021/12/15 11:47:44;;;;;;;4.38;3.42;;;;;;;;;;5059960;28;20056;-72
2021/12/15 11:50:12;;;;;;;4.47;3.50;;;16.60;66.10;;;;;;5063754;28;20131;-71
2021/12/15 11:52:41;;;;;;;4.88;3.45;;;16.20;65.80;;;;;;5063920;28;20040;-72
2021/12/15 11:55:10;;;;;;;5.82;3.85;;;17.00;66.60;;;;;;5062440;28;20458;-72
2021/12/15 11:57:36;;;;;;;4.88;3.60;;;16.80;63.90;;;;;;5057375;28;20059;-71
2021/12/15 12:00:07;;;;;;;5.88;3.85;;;17.10;66.40;;;;;;5055507;28;20553;-71
2021/12/15 12:02:36;;;;;;;7.22;3.72;;;17.00;66.50;;;;;;5056172;28;20041;-70
2021/12/15 12:05:05;;;;;;;4.95;3.45;;;17.00;66.70;;;;;;5057355;28;20052;-72
2021/12/15 12:07:32;;;;;;;6.70;4.13;;;16.00;66.00;;;;;;5067796;28;20048;-72
2021/12/15 12:10:02;;;;;;;5.38;3.60;;;17.40;63.50;;;;;;5053654;28;20080;-71
2021/12/15 12:12:34;;;;;;;4.18;3.53;;;17.00;66.80;;;;;;5058071;28;20044;-71
2021/12/15 12:15:01;;;;;;;5.80;3.22;;;16.80;66.50;;;;;;5067833;28;20053;-70
2021/12/15 12:17:29;;;;;;;5.22;3.22;;;17.00;66.70;;;;;;5050536;28;20144;-71
2021/12/15 12:19:59;;;;;;;7.07;3.42;;;16.30;66.40;;;;;;5072899;28;20056;-72
2021/12/15 12:22:29;;;;;;;4.43;2.65;;;17.00;66.60;;;;;;5072236;28;20143;-71
2021/12/15 12:24:57;;;;;;;5.78;3.30;;;16.20;66.00;;;;;;5074171;28;20050;-71
2021/12/15 12:27:26;;;;;;;7.88;3.20;;;16.20;66.00;;;;;;5073779;28;20127;-71
2021/12/15 12:29:58;;;;;;;5.25;2.97;;;16.80;66.20;;;;;;5072170;28;20079;-69
2021/12/15 12:32:25;;;;;;;4.32;3.20;;;16.30;66.20;;;;;;5071253;28;20050;-71
2021/12/15 12:34:52;;;;;;;5.50;2.92;;;17.00;64.10;;;;;;5072797;28;20063;-70
2021/12/15 12:37:20;;;;;;;7.82;3.10;;;16.90;66.50;;;;;;5072752;28;20057;-71
2021/12/15 12:39:53;;;;;;;4.85;3.13;;;17.10;66.50;;;;;;5074107;28;20503;-69
2021/12/15 12:42:35;;;;;;;6.32;3.10;;;17.10;66.60;;;;;;5073714;28;20497;-71
2021/12/15 12:45:30;;;;;;;5.07;2.50;;;17.00;66.50;;;;;;5054205;28;20119;-71
2021/12/15 12:48:15;;;;;;;5.30;3.17;;;17.00;66.20;;;;;;5052491;28;20053;-70
2021/12/15 12:59:25;;;;;;;2.97;2.50;;;16.90;66.10;;;;;;5068316;28;20053;-71
2021/12/15 13:01:52;;;;;;;4.40;2.50;;;17.00;66.20;;;;;;5072293;28;20056;-71
2021/12/15 13:04:19;;;;;;;4.15;2.60;;;16.90;66.30;;;;;;5072414;28;20141;-71
2021/12/15 13:06:46;;;;;;;4.50;2.90;;;17.20;66.40;;;;;;5068519;28;20569;-70
2021/12/15 13:09:16;;;;;;;4.40;3.00;;;17.10;64.20;;;;;;5066856;28;20041;-70
2021/12/15 13:11:46;;;;;;;4.32;2.72;;;16.80;66.10;;;;;;5071882;28;20056;-71
2021/12/15 13:14:14;;;;;;;4.53;2.60;;;17.10;66.00;;;;;;5056462;28;20067;-71
2021/12/15 13:16:42;;;;;;;3.67;2.80;;;16.90;61.10;;;;;;5051493;28;20063;-71
2021/12/15 13:19:20;;;;;;;4.28;2.50;;;17.30;66.10;;;;;;5050854;28;20084;-71
2021/12/15 13:22:01;;;;;;;3.58;2.60;;;16.50;66.00;;;;;;5051095;28;20077;-71
2021/12/15 13:30:33;;;;;;;3.90;2.72;;;17.90;66.50;;;;;;5068626;28;20052;-71
2021/12/15 13:33:06;;;;;;;3.90;2.47;;;17.20;66.10;;;;;;5051486;28;20076;-71
2021/12/15 13:35:39;;;;;;;5.22;2.72;;;17.10;60.70;;;;;;5051347;28;20154;-70
2021/12/15 13:38:06;;;;;;;4.10;2.30;;;16.70;65.80;;;;;;5051419;28;20107;-71
2021/12/15 13:40:54;;;;;;;4.20;2.60;;;17.70;66.60;;;;;;5052741;28;20131;-71
2021/12/15 13:43:42;;;;;;;4.85;2.58;;;17.50;66.40;;;;;;5052670;28;20084;-71
2021/12/15 13:46:10;;;;;;;4.63;2.30;;;17.20;66.40;;;;;;5051143;28;20133;-71
2021/12/15 13:49:05;;;;;;;4.82;2.70;;;17.10;62.50;;;;;;5058971;28;20059;-70
2021/12/15 13:52:05;;;;;;;4.20;2.47;;;17.10;66.20;;;;;;5051579;28;20557;-71
2021/12/15 13:54:53;;;;;;;4.43;2.40;;;17.20;66.50;;;;;;5049064;28;20140;-71
2021/12/15 13:57:23;;;;;;;2.85;2.40;;;17.10;66.50;;;;;;5050952;28;20084;-70
2021/12/15 14:00:02;;;;;;;4.32;2.38;;;16.70;66.20;;;;;;5052393;28;20049;-70
2021/12/15 14:02:31;;;;;;;3.55;2.40;;;17.00;60.90;;;;;;5051461;28;20109;-71
2021/12/15 14:05:00;;;;;;;4.15;2.20;;;17.10;66.50;;;;;;5051071;28;20144;-70
2021/12/15 14:07:36;;;;;;;3.13;2.33;;;16.90;66.40;;;;;;5051123;28;20140;-70
2021/12/15 14:10:21;;;;;;;3.38;2.40;;;16.90;66.20;;;;;;5051645;28;20493;-70
2021/12/15 14:12:52;;;;;;;4.47;2.50;;;16.90;60.90;;;;;;5061707;28;20048;-70